sensor_id;sensor_type;location;lat;lon;timestamp;temperature;humidity
24800;DHT22;12897;50.812;4.430;2023-05-10T00:02:21;14.20;99.90
24800;DHT22;12897;50.812;4.430;2023-05-10T00:04:49;14.20;99.90
24800;DHT22;12897;50.812;4.430;2023-05-10T00:07:18;14.20;99.90
24800;DHT22;12897;50.812;4.430;2023-05-10T00:09:46;14.20;99.90
24800;DHT22;12897;50.812;4.430;2023-05-10T00:12:13;14.30;99.90
24800;DHT22;12897;50.812;4.430;2023-05-10T00:14:41;14.30;99.90
24800;DHT22;12897;50.812;4.430;2023-05-10T00:17:15;14.40;99.90
24800;DHT22;12897;50.812;4.430;2023-05-10T00:19:43;14.50;99.90
24800;DHT22;12897;50.812;4.430;2023-05-10T00:22:10;14.40;99.90
24800;DHT22;12897;50.812;4.430;2023-05-10T00:24:38;14.50;99.90
24800;DHT22;12897;50.812;4.430;2023-05-10T00:27:05;14.40;99.90
24800;DHT22;12897;50.812;4.430;2023-05-10T00:29:33;14.40;99.90
24800;DHT22;12897;50.812;4.430;2023-05-10T00:32:00;14.60;99.90
24800;DHT22;12897;50.812;4.430;2023-05-10T00:34:29;14.60;99.90
24800;DHT22;12897;50.812;4.430;2023-05-10T00:36:57;14.50;99.90
24800;DHT22;12897;50.812;4.430;2023-05-10T00:39:25;14.50;99.90
24800;DHT22;12897;50.812;4.430;2023-05-10T00:41:54;14.50;99.90
24800;DHT22;12897;50.812;4.430;2023-05-10T00:44:21;14.50;99.90
24800;DHT22;12897;50.812;4.430;2023-05-10T00:46:50;14.50;99.90
24800;DHT22;12897;50.812;4.430;2023-05-10T00:49:18;14.40;99.90
24800;DHT22;12897;50.812;4.430;2023-05-10T00:51:46;14.40;99.90
24800;DHT22;12897;50.812;4.430;2023-05-10T00:54:14;14.50;99.90
24800;DHT22;12897;50.812;4.430;2023-05-10T00:56:42;14.50;99.90
24800;DHT22;12897;50.812;4.430;2023-05-10T00:59:12;14.50;99.90
24800;DHT22;12897;50.812;4.430;2023-05-10T01:01:39;14.60;99.90
24800;DHT22;12897;50.812;4.430;2023-05-10T01:04:07;14.70;99.90
24800;DHT22;12897;50.812;4.430;2023-05-10T01:06:35;14.70;99.90
24800;DHT22;12897;50.812;4.430;2023-05-10T01:09:03;14.60;99.90
24800;DHT22;12897;50.812;4.430;2023-05-10T01:11:37;14.60;99.90
24800;DHT22;12897;50.812;4.430;2023-05-10T01:14:05;14.60;99.90
24800;DHT22;12897;50.812;4.430;2023-05-10T01:16:36;14.60;99.90
24800;DHT22;12897;50.812;4.430;2023-05-10T01:19:06;14.70;99.90
24800;DHT22;12897;50.812;4.430;2023-05-10T01:21:44;14.80;99.90
24800;DHT22;12897;50.812;4.430;2023-05-10T01:27:37;14.70;99.90
24800;DHT22;12897;50.812;4.430;2023-05-10T01:30:14;14.80;99.90
24800;DHT22;12897;50.812;4.430;2023-05-10T01:38:13;14.50;99.90
24800;DHT22;12897;50.812;4.430;2023-05-10T01:41:02;14.60;99.90
24800;DHT22;12897;50.812;4.430;2023-05-10T01:43:30;14.50;99.90
24800;DHT22;12897;50.812;4.430;2023-05-10T01:46:10;14.60;99.90
24800;DHT22;12897;50.812;4.430;2023-05-10T01:48:35;14.60;99.90
24800;DHT22;12897;50.812;4.430;2023-05-10T01:51:05;14.40;99.90
24800;DHT22;12897;50.812;4.430;2023-05-10T01:53:35;14.40;99.90
24800;DHT22;12897;50.812;4.430;2023-05-10T01:56:04;14.40;99.90
24800;DHT22;12897;50.812;4.430;2023-05-10T01:58:52;14.30;99.90
24800;DHT22;12897;50.812;4.430;2023-05-10T02:01:21;14.20;99.90
24800;DHT22;12897;50.812;4.430;2023-05-10T02:03:50;14.30;99.90
24800;DHT22;12897;50.812;4.430;2023-05-10T02:06:19;14.40;99.90
24800;DHT22;12897;50.812;4.430;2023-05-10T02:08:49;14.30;99.90
24800;DHT22;12897;50.812;4.430;2023-05-10T02:11:41;14.30;99.90
24800;DHT22;12897;50.812;4.430;2023-05-10T02:14:10;14.40;99.90
24800;DHT22;12897;50.812;4.430;2023-05-10T02:16:39;14.50;99.90
24800;DHT22;12897;50.812;4.430;2023-05-10T02:19:09;14.50;99.90
24800;DHT22;12897;50.812;4.430;2023-05-10T02:21:40;14.40;99.90
24800;DHT22;12897;50.812;4.430;2023-05-10T02:24:06;14.40;99.90
24800;DHT22;12897;50.812;4.430;2023-05-10T02:26:35;14.50;99.90
24800;DHT22;12897;50.812;4.430;2023-05-10T02:29:04;14.50;99.90
24800;DHT22;12897;50.812;4.430;2023-05-10T02:31:33;14.40;99.90
24800;DHT22;12897;50.812;4.430;2023-05-10T02:34:03;14.20;99.90
24800;DHT22;12897;50.812;4.430;2023-05-10T02:36:31;14.10;99.90
24800;DHT22;12897;50.812;4.430;2023-05-10T02:39:01;14.00;99.90
24800;DHT22;12897;50.812;4.430;2023-05-10T02:41:34;14.00;99.90
24800;DHT22;12897;50.812;4.430;2023-05-10T02:44:02;14.00;99.90
24800;DHT22;12897;50.812;4.430;2023-05-10T02:46:32;14.10;99.90
24800;DHT22;12897;50.812;4.430;2023-05-10T02:49:00;14.00;99.90
24800;DHT22;12897;50.812;4.430;2023-05-10T02:51:30;14.10;99.90
24800;DHT22;12897;50.812;4.430;2023-05-10T02:54:01;14.00;99.90
24800;DHT22;12897;50.812;4.430;2023-05-10T02:56:36;14.00;99.90
24800;DHT22;12897;50.812;4.430;2023-05-10T02:58:59;14.00;99.90
24800;DHT22;12897;50.812;4.430;2023-05-10T03:01:27;14.00;99.90
24800;DHT22;12897;50.812;4.430;2023-05-10T03:03:55;14.00;99.90
24800;DHT22;12897;50.812;4.430;2023-05-10T03:06:22;14.00;99.90
24800;DHT22;12897;50.812;4.430;2023-05-10T03:08:50;14.00;99.90
24800;DHT22;12897;50.812;4.430;2023-05-10T03:14:40;13.90;99.90
24800;DHT22;12897;50.812;4.430;2023-05-10T03:19:35;13.90;99.90
24800;DHT22;12897;50.812;4.430;2023-05-10T03:22:03;13.70;99.90
24800;DHT22;12897;50.812;4.430;2023-05-10T03:24:33;13.70;99.90
24800;DHT22;12897;50.812;4.430;2023-05-10T03:27:05;13.80;99.90
24800;DHT22;12897;50.812;4.430;2023-05-10T03:29:34;13.80;99.90
24800;DHT22;12897;50.812;4.430;2023-05-10T03:32:03;13.70;99.90
24800;DHT22;12897;50.812;4.430;2023-05-10T03:34:32;13.60;99.90
24800;DHT22;12897;50.812;4.430;2023-05-10T03:36:59;13.60;99.90
24800;DHT22;12897;50.812;4.430;2023-05-10T03:39:28;13.50;99.90
24800;DHT22;12897;50.812;4.430;2023-05-10T03:41:56;13.50;99.90
24800;DHT22;12897;50.812;4.430;2023-05-10T03:44:23;13.50;99.90
24800;DHT22;12897;50.812;4.430;2023-05-10T03:46:51;13.60;99.90
24800;DHT22;12897;50.812;4.430;2023-05-10T03:49:18;13.60;99.90
24800;DHT22;12897;50.812;4.430;2023-05-10T03:51:47;13.60;99.90
24800;DHT22;12897;50.812;4.430;2023-05-10T03:54:21;13.60;99.90
24800;DHT22;12897;50.812;4.430;2023-05-10T03:56:49;13.60;99.90
24800;DHT22;12897;50.812;4.430;2023-05-10T03:59:16;13.60;99.90
24800;DHT22;12897;50.812;4.430;2023-05-10T04:01:45;13.60;99.90
24800;DHT22;12897;50.812;4.430;2023-05-10T04:04:12;13.60;99.90
24800;DHT22;12897;50.812;4.430;2023-05-10T04:06:59;13.60;99.90
24800;DHT22;12897;50.812;4.430;2023-05-10T04:09:27;13.60;99.90
24800;DHT22;12897;50.812;4.430;2023-05-10T04:11:54;13.60;99.90
24800;DHT22;12897;50.812;4.430;2023-05-10T04:14:22;13.70;99.90
24800;DHT22;12897;50.812;4.430;2023-05-10T04:16:49;13.70;99.90
24800;DHT22;12897;50.812;4.430;2023-05-10T04:19:36;13.70;99.90
24800;DHT22;12897;50.812;4.430;2023-05-10T04:22:05;13.80;99.90
24800;DHT22;12897;50.812;4.430;2023-05-10T04:24:33;13.70;99.90
24800;DHT22;12897;50.812;4.430;2023-05-10T04:27:02;13.80;99.90
24800;DHT22;12897;50.812;4.430;2023-05-10T04:29:30;13.70;99.90
24800;DHT22;12897;50.812;4.430;2023-05-10T04:31:58;13.70;99.90
24800;DHT22;12897;50.812;4.430;2023-05-10T04:34:26;13.70;99.90
24800;DHT22;12897;50.812;4.430;2023-05-10T04:36:53;13.60;99.90
24800;DHT22;12897;50.812;4.430;2023-05-10T04:39:21;13.60;99.90
24800;DHT22;12897;50.812;4.430;2023-05-10T04:41:49;13.50;99.90
24800;DHT22;12897;50.812;4.430;2023-05-10T04:44:16;13.50;99.90
24800;DHT22;12897;50.812;4.430;2023-05-10T04:46:47;13.50;99.90
24800;DHT22;12897;50.812;4.430;2023-05-10T04:49:15;13.50;99.90
24800;DHT22;12897;50.812;4.430;2023-05-10T04:51:43;13.60;99.90
24800;DHT22;12897;50.812;4.430;2023-05-10T04:54:10;13.70;99.90
24800;DHT22;12897;50.812;4.430;2023-05-10T04:56:38;13.70;99.90
24800;DHT22;12897;50.812;4.430;2023-05-10T04:59:06;13.80;99.90
24800;DHT22;12897;50.812;4.430;2023-05-10T05:01:34;13.70;99.90
24800;DHT22;12897;50.812;4.430;2023-05-10T05:04:01;13.70;99.90
24800;DHT22;12897;50.812;4.430;2023-05-10T05:06:30;13.70;99.90
24800;DHT22;12897;50.812;4.430;2023-05-10T05:08:57;13.70;99.90
24800;DHT22;12897;50.812;4.430;2023-05-10T05:11:25;13.70;99.90
24800;DHT22;12897;50.812;4.430;2023-05-10T05:13:53;13.70;99.90
24800;DHT22;12897;50.812;4.430;2023-05-10T05:16:20;13.70;99.90
24800;DHT22;12897;50.812;4.430;2023-05-10T05:18:48;13.80;99.90
24800;DHT22;12897;50.812;4.430;2023-05-10T05:21:16;13.70;99.90
24800;DHT22;12897;50.812;4.430;2023-05-10T05:23:45;13.60;99.90
24800;DHT22;12897;50.812;4.430;2023-05-10T05:26:12;13.70;99.90
24800;DHT22;12897;50.812;4.430;2023-05-10T05:28:41;13.70;99.90
24800;DHT22;12897;50.812;4.430;2023-05-10T05:31:09;13.80;99.90
24800;DHT22;12897;50.812;4.430;2023-05-10T05:33:37;13.70;99.90
24800;DHT22;12897;50.812;4.430;2023-05-10T05:36:05;13.70;99.90
24800;DHT22;12897;50.812;4.430;2023-05-10T05:38:34;13.70;99.90
24800;DHT22;12897;50.812;4.430;2023-05-10T05:41:01;13.60;99.90
24800;DHT22;12897;50.812;4.430;2023-05-10T05:43:29;13.50;99.90
24800;DHT22;12897;50.812;4.430;2023-05-10T05:45:58;13.30;99.90
24800;DHT22;12897;50.812;4.430;2023-05-10T05:48:26;13.30;99.90
24800;DHT22;12897;50.812;4.430;2023-05-10T05:50:58;13.10;99.90
24800;DHT22;12897;50.812;4.430;2023-05-10T05:53:31;13.10;99.90
24800;DHT22;12897;50.812;4.430;2023-05-10T05:56:02;13.20;99.90
24800;DHT22;12897;50.812;4.430;2023-05-10T05:58:30;13.10;99.90
24800;DHT22;12897;50.812;4.430;2023-05-10T06:00:59;13.10;99.90
24800;DHT22;12897;50.812;4.430;2023-05-10T06:03:27;13.10;99.90
24800;DHT22;12897;50.812;4.430;2023-05-10T06:05:57;13.10;99.90
24800;DHT22;12897;50.812;4.430;2023-05-10T06:08:32;13.20;99.90
24800;DHT22;12897;50.812;4.430;2023-05-10T06:11:04;13.20;99.90
24800;DHT22;12897;50.812;4.430;2023-05-10T06:13:32;13.00;99.90
24800;DHT22;12897;50.812;4.430;2023-05-10T06:16:02;13.00;99.90
24800;DHT22;12897;50.812;4.430;2023-05-10T06:18:32;12.80;99.90
24800;DHT22;12897;50.812;4.430;2023-05-10T06:20:59;12.90;99.90
24800;DHT22;12897;50.812;4.430;2023-05-10T06:23:28;12.80;99.90
24800;DHT22;12897;50.812;4.430;2023-05-10T06:25:56;12.90;99.90
24800;DHT22;12897;50.812;4.430;2023-05-10T06:28:24;13.00;99.90
24800;DHT22;12897;50.812;4.430;2023-05-10T06:30:53;13.00;99.90
24800;DHT22;12897;50.812;4.430;2023-05-10T06:33:23;13.00;99.90
24800;DHT22;12897;50.812;4.430;2023-05-10T06:35:54;13.00;99.90
24800;DHT22;12897;50.812;4.430;2023-05-10T06:38:22;13.00;99.90
24800;DHT22;12897;50.812;4.430;2023-05-10T06:40:51;13.00;99.90
24800;DHT22;12897;50.812;4.430;2023-05-10T06:43:19;13.00;99.90
24800;DHT22;12897;50.812;4.430;2023-05-10T06:45:48;13.10;99.90
24800;DHT22;12897;50.812;4.430;2023-05-10T06:48:15;13.10;99.90
24800;DHT22;12897;50.812;4.430;2023-05-10T06:50:43;13.30;99.90
24800;DHT22;12897;50.812;4.430;2023-05-10T06:53:11;13.30;99.90
24800;DHT22;12897;50.812;4.430;2023-05-10T06:55:40;13.40;99.90
24800;DHT22;12897;50.812;4.430;2023-05-10T06:58:08;13.50;99.90
24800;DHT22;12897;50.812;4.430;2023-05-10T07:00:35;13.60;99.90
24800;DHT22;12897;50.812;4.430;2023-05-10T07:03:05;13.50;99.90
24800;DHT22;12897;50.812;4.430;2023-05-10T07:05:32;13.70;99.90
24800;DHT22;12897;50.812;4.430;2023-05-10T07:08:00;13.60;99.90
24800;DHT22;12897;50.812;4.430;2023-05-10T07:10:28;13.70;99.90
24800;DHT22;12897;50.812;4.430;2023-05-10T07:12:58;13.70;99.90
24800;DHT22;12897;50.812;4.430;2023-05-10T07:15:26;13.70;99.90
24800;DHT22;12897;50.812;4.430;2023-05-10T07:17:55;13.70;99.90
24800;DHT22;12897;50.812;4.430;2023-05-10T07:20:24;13.80;99.90
24800;DHT22;12897;50.812;4.430;2023-05-10T07:22:51;13.80;99.90
24800;DHT22;12897;50.812;4.430;2023-05-10T07:25:19;13.70;99.90
24800;DHT22;12897;50.812;4.430;2023-05-10T07:27:46;13.60;99.90
24800;DHT22;12897;50.812;4.430;2023-05-10T07:30:34;13.40;99.90
24800;DHT22;12897;50.812;4.430;2023-05-10T07:33:02;13.50;99.90
24800;DHT22;12897;50.812;4.430;2023-05-10T07:35:30;13.50;99.90
24800;DHT22;12897;50.812;4.430;2023-05-10T07:37:57;13.60;99.90
24800;DHT22;12897;50.812;4.430;2023-05-10T07:40:25;13.70;99.90
24800;DHT22;12897;50.812;4.430;2023-05-10T07:42:52;13.70;99.90
24800;DHT22;12897;50.812;4.430;2023-05-10T07:45:21;13.70;99.90
24800;DHT22;12897;50.812;4.430;2023-05-10T07:47:50;13.70;99.90
24800;DHT22;12897;50.812;4.430;2023-05-10T07:50:18;13.60;99.90
24800;DHT22;12897;50.812;4.430;2023-05-10T07:52:48;13.60;99.90
24800;DHT22;12897;50.812;4.430;2023-05-10T07:55:16;13.60;99.90
24800;DHT22;12897;50.812;4.430;2023-05-10T07:57:45;13.60;99.90
24800;DHT22;12897;50.812;4.430;2023-05-10T08:00:13;13.60;99.90
24800;DHT22;12897;50.812;4.430;2023-05-10T08:02:42;13.60;99.90
24800;DHT22;12897;50.812;4.430;2023-05-10T08:05:10;13.70;99.90
24800;DHT22;12897;50.812;4.430;2023-05-10T08:07:38;13.70;99.90
24800;DHT22;12897;50.812;4.430;2023-05-10T08:10:06;13.70;99.90
24800;DHT22;12897;50.812;4.430;2023-05-10T08:12:34;13.90;99.90
24800;DHT22;12897;50.812;4.430;2023-05-10T08:15:02;13.80;99.90
24800;DHT22;12897;50.812;4.430;2023-05-10T08:17:31;13.90;99.90
24800;DHT22;12897;50.812;4.430;2023-05-10T08:20:00;13.80;99.90
24800;DHT22;12897;50.812;4.430;2023-05-10T08:22:27;13.90;99.90
24800;DHT22;12897;50.812;4.430;2023-05-10T08:24:55;14.10;99.90
24800;DHT22;12897;50.812;4.430;2023-05-10T08:27:22;14.10;99.90
24800;DHT22;12897;50.812;4.430;2023-05-10T08:29:50;14.20;99.90
24800;DHT22;12897;50.812;4.430;2023-05-10T08:32:18;14.30;99.90
24800;DHT22;12897;50.812;4.430;2023-05-10T08:34:46;14.40;99.90
24800;DHT22;12897;50.812;4.430;2023-05-10T08:37:13;14.60;99.90
24800;DHT22;12897;50.812;4.430;2023-05-10T08:39:41;14.50;99.90
24800;DHT22;12897;50.812;4.430;2023-05-10T08:42:09;14.70;99.90
24800;DHT22;12897;50.812;4.430;2023-05-10T08:44:38;14.80;99.90
24800;DHT22;12897;50.812;4.430;2023-05-10T08:47:06;14.80;99.90
24800;DHT22;12897;50.812;4.430;2023-05-10T08:49:34;14.80;99.90
24800;DHT22;12897;50.812;4.430;2023-05-10T08:52:03;14.80;99.90
24800;DHT22;12897;50.812;4.430;2023-05-10T08:54:32;14.80;99.90
24800;DHT22;12897;50.812;4.430;2023-05-10T08:57:01;14.50;99.90
24800;DHT22;12897;50.812;4.430;2023-05-10T08:59:29;14.40;99.90
24800;DHT22;12897;50.812;4.430;2023-05-10T09:01:58;14.30;99.90
24800;DHT22;12897;50.812;4.430;2023-05-10T09:04:27;14.20;99.90
24800;DHT22;12897;50.812;4.430;2023-05-10T09:06:55;14.20;99.90
24800;DHT22;12897;50.812;4.430;2023-05-10T09:09:24;14.40;99.90
24800;DHT22;12897;50.812;4.430;2023-05-10T09:11:53;14.40;99.90
24800;DHT22;12897;50.812;4.430;2023-05-10T09:14:24;14.50;99.90
24800;DHT22;12897;50.812;4.430;2023-05-10T09:16:53;14.70;99.90
24800;DHT22;12897;50.812;4.430;2023-05-10T09:19:21;14.70;99.90
24800;DHT22;12897;50.812;4.430;2023-05-10T09:21:50;14.60;99.90
24800;DHT22;12897;50.812;4.430;2023-05-10T09:24:18;14.70;99.90
24800;DHT22;12897;50.812;4.430;2023-05-10T09:26:47;14.70;99.90
24800;DHT22;12897;50.812;4.430;2023-05-10T09:29:18;14.60;99.90
24800;DHT22;12897;50.812;4.430;2023-05-10T09:31:47;14.60;99.90
24800;DHT22;12897;50.812;4.430;2023-05-10T09:34:19;14.50;99.90
24800;DHT22;12897;50.812;4.430;2023-05-10T09:36:57;14.60;99.90
24800;DHT22;12897;50.812;4.430;2023-05-10T09:39:32;14.60;99.90
24800;DHT22;12897;50.812;4.430;2023-05-10T09:42:07;14.70;99.90
24800;DHT22;12897;50.812;4.430;2023-05-10T09:44:38;14.60;99.90
24800;DHT22;12897;50.812;4.430;2023-05-10T09:47:07;14.50;99.90
24800;DHT22;12897;50.812;4.430;2023-05-10T09:49:35;14.40;99.90
24800;DHT22;12897;50.812;4.430;2023-05-10T09:52:04;14.40;99.90
24800;DHT22;12897;50.812;4.430;2023-05-10T09:54:32;14.40;99.90
24800;DHT22;12897;50.812;4.430;2023-05-10T09:57:00;14.30;99.90
24800;DHT22;12897;50.812;4.430;2023-05-10T09:59:29;14.30;99.90
24800;DHT22;12897;50.812;4.430;2023-05-10T10:01:58;14.40;99.90
24800;DHT22;12897;50.812;4.430;2023-05-10T10:04:27;14.40;99.90
24800;DHT22;12897;50.812;4.430;2023-05-10T10:07:02;14.60;99.90
24800;DHT22;12897;50.812;4.430;2023-05-10T10:09:32;14.60;99.90
24800;DHT22;12897;50.812;4.430;2023-05-10T10:12:02;14.70;99.90
24800;DHT22;12897;50.812;4.430;2023-05-10T10:14:31;14.60;99.90
24800;DHT22;12897;50.812;4.430;2023-05-10T10:17:00;14.80;99.90
24800;DHT22;12897;50.812;4.430;2023-05-10T10:19:28;14.80;99.90
24800;DHT22;12897;50.812;4.430;2023-05-10T10:21:57;15.00;99.90
24800;DHT22;12897;50.812;4.430;2023-05-10T10:24:25;15.20;99.90
24800;DHT22;12897;50.812;4.430;2023-05-10T10:26:55;15.30;99.90
24800;DHT22;12897;50.812;4.430;2023-05-10T10:32:32;15.60;99.90
24800;DHT22;12897;50.812;4.430;2023-05-10T10:34:58;15.70;99.90
24800;DHT22;12897;50.812;4.430;2023-05-10T10:37:46;15.80;99.90
24800;DHT22;12897;50.812;4.430;2023-05-10T10:40:33;15.60;99.90
24800;DHT22;12897;50.812;4.430;2023-05-10T10:43:24;15.50;99.90
24800;DHT22;12897;50.812;4.430;2023-05-10T10:46:16;15.30;99.90
24800;DHT22;12897;50.812;4.430;2023-05-10T10:49:10;15.50;99.90
24800;DHT22;12897;50.812;4.430;2023-05-10T10:51:38;15.50;99.90
24800;DHT22;12897;50.812;4.430;2023-05-10T10:54:12;15.70;99.90
24800;DHT22;12897;50.812;4.430;2023-05-10T10:56:39;16.00;99.90
24800;DHT22;12897;50.812;4.430;2023-05-10T10:59:08;16.10;99.90
24800;DHT22;12897;50.812;4.430;2023-05-10T11:01:36;16.20;99.90
24800;DHT22;12897;50.812;4.430;2023-05-10T11:06:36;16.40;99.90
24800;DHT22;12897;50.812;4.430;2023-05-10T11:09:11;16.40;99.90
24800;DHT22;12897;50.812;4.430;2023-05-10T11:11:53;16.50;99.90
24800;DHT22;12897;50.812;4.430;2023-05-10T11:14:25;16.40;99.90
24800;DHT22;12897;50.812;4.430;2023-05-10T11:16:53;16.20;99.90
24800;DHT22;12897;50.812;4.430;2023-05-10T11:19:22;16.40;99.90
24800;DHT22;12897;50.812;4.430;2023-05-10T11:24:35;16.50;99.90
24800;DHT22;12897;50.812;4.430;2023-05-10T11:27:05;16.60;99.90
24800;DHT22;12897;50.812;4.430;2023-05-10T11:29:33;16.70;99.90
24800;DHT22;12897;50.812;4.430;2023-05-10T11:32:01;16.60;99.90
24800;DHT22;12897;50.812;4.430;2023-05-10T11:34:30;16.90;99.90
24800;DHT22;12897;50.812;4.430;2023-05-10T11:37:00;16.70;99.90
24800;DHT22;12897;50.812;4.430;2023-05-10T11:39:30;16.60;99.90
24800;DHT22;12897;50.812;4.430;2023-05-10T11:41:58;16.50;99.90
24800;DHT22;12897;50.812;4.430;2023-05-10T11:44:30;16.90;99.90
24800;DHT22;12897;50.812;4.430;2023-05-10T11:47:00;17.10;99.90
24800;DHT22;12897;50.812;4.430;2023-05-10T11:49:27;17.10;99.90
24800;DHT22;12897;50.812;4.430;2023-05-10T11:52:08;16.60;99.90
24800;DHT22;12897;50.812;4.430;2023-05-10T11:54:37;16.60;99.90
24800;DHT22;12897;50.812;4.430;2023-05-10T11:57:07;16.80;99.90
24800;DHT22;12897;50.812;4.430;2023-05-10T11:59:34;17.00;99.90
24800;DHT22;12897;50.812;4.430;2023-05-10T12:02:10;16.90;99.90
24800;DHT22;12897;50.812;4.430;2023-05-10T12:04:37;16.90;99.90
24800;DHT22;12897;50.812;4.430;2023-05-10T12:07:06;16.90;99.90
24800;DHT22;12897;50.812;4.430;2023-05-10T12:09:33;17.00;99.90
24800;DHT22;12897;50.812;4.430;2023-05-10T12:12:02;17.30;99.90
24800;DHT22;12897;50.812;4.430;2023-05-10T12:14:33;17.60;99.90
24800;DHT22;12897;50.812;4.430;2023-05-10T12:17:00;17.60;99.90
24800;DHT22;12897;50.812;4.430;2023-05-10T12:19:37;17.50;99.90
24800;DHT22;12897;50.812;4.430;2023-05-10T12:22:05;17.30;99.90
24800;DHT22;12897;50.812;4.430;2023-05-10T12:24:40;17.40;99.90
24800;DHT22;12897;50.812;4.430;2023-05-10T12:27:10;17.70;99.90
24800;DHT22;12897;50.812;4.430;2023-05-10T12:29:41;17.70;99.90
24800;DHT22;12897;50.812;4.430;2023-05-10T12:32:10;17.60;99.90
24800;DHT22;12897;50.812;4.430;2023-05-10T12:34:38;17.80;99.90
24800;DHT22;12897;50.812;4.430;2023-05-10T12:37:07;17.50;99.90
24800;DHT22;12897;50.812;4.430;2023-05-10T12:39:42;17.60;99.90
24800;DHT22;12897;50.812;4.430;2023-05-10T12:42:11;17.90;99.90
24800;DHT22;12897;50.812;4.430;2023-05-10T12:44:39;18.00;99.90
24800;DHT22;12897;50.812;4.430;2023-05-10T12:47:07;18.20;99.90
24800;DHT22;12897;50.812;4.430;2023-05-10T12:49:34;17.80;99.90
24800;DHT22;12897;50.812;4.430;2023-05-10T12:52:02;17.60;99.90
24800;DHT22;12897;50.812;4.430;2023-05-10T12:54:30;17.40;99.90
24800;DHT22;12897;50.812;4.430;2023-05-10T12:56:57;17.40;99.90
24800;DHT22;12897;50.812;4.430;2023-05-10T12:59:25;17.50;99.90
24800;DHT22;12897;50.812;4.430;2023-05-10T13:01:52;17.10;99.90
24800;DHT22;12897;50.812;4.430;2023-05-10T13:04:20;17.20;99.90
24800;DHT22;12897;50.812;4.430;2023-05-10T13:06:47;17.60;99.90
24800;DHT22;12897;50.812;4.430;2023-05-10T13:09:16;17.80;99.90
24800;DHT22;12897;50.812;4.430;2023-05-10T13:11:44;18.00;99.90
24800;DHT22;12897;50.812;4.430;2023-05-10T13:14:12;18.30;99.90
24800;DHT22;12897;50.812;4.430;2023-05-10T13:16:39;18.60;99.90
24800;DHT22;12897;50.812;4.430;2023-05-10T13:19:07;18.90;99.90
24800;DHT22;12897;50.812;4.430;2023-05-10T13:21:35;19.40;99.90
24800;DHT22;12897;50.812;4.430;2023-05-10T13:24:02;19.50;99.90
24800;DHT22;12897;50.812;4.430;2023-05-10T13:26:30;19.20;99.90
24800;DHT22;12897;50.812;4.430;2023-05-10T13:28:59;19.40;99.90
24800;DHT22;12897;50.812;4.430;2023-05-10T13:31:26;19.50;99.90
24800;DHT22;12897;50.812;4.430;2023-05-10T13:33:55;19.30;99.90
24800;DHT22;12897;50.812;4.430;2023-05-10T13:36:22;19.00;99.90
24800;DHT22;12897;50.812;4.430;2023-05-10T13:38:51;19.00;99.90
24800;DHT22;12897;50.812;4.430;2023-05-10T13:41:18;18.50;99.90
24800;DHT22;12897;50.812;4.430;2023-05-10T13:43:47;18.60;99.90
24800;DHT22;12897;50.812;4.430;2023-05-10T13:46:15;18.30;99.90
24800;DHT22;12897;50.812;4.430;2023-05-10T13:48:43;18.10;99.90
24800;DHT22;12897;50.812;4.430;2023-05-10T13:51:12;17.90;99.90
24800;DHT22;12897;50.812;4.430;2023-05-10T13:53:39;17.70;99.90
24800;DHT22;12897;50.812;4.430;2023-05-10T13:56:09;17.60;99.90
24800;DHT22;12897;50.812;4.430;2023-05-10T13:58:37;17.80;99.90
24800;DHT22;12897;50.812;4.430;2023-05-10T14:01:04;17.90;99.90
24800;DHT22;12897;50.812;4.430;2023-05-10T14:03:32;17.80;99.90
24800;DHT22;12897;50.812;4.430;2023-05-10T14:06:00;18.10;99.90
24800;DHT22;12897;50.812;4.430;2023-05-10T14:08:27;18.20;99.90
24800;DHT22;12897;50.812;4.430;2023-05-10T14:10:56;18.50;99.90
24800;DHT22;12897;50.812;4.430;2023-05-10T14:13:26;18.50;99.90
24800;DHT22;12897;50.812;4.430;2023-05-10T14:15:54;18.40;99.90
24800;DHT22;12897;50.812;4.430;2023-05-10T14:18:22;18.40;99.90
24800;DHT22;12897;50.812;4.430;2023-05-10T14:20:49;18.40;99.90
24800;DHT22;12897;50.812;4.430;2023-05-10T14:23:17;18.20;99.90
24800;DHT22;12897;50.812;4.430;2023-05-10T14:25:46;18.30;99.90
24800;DHT22;12897;50.812;4.430;2023-05-10T14:28:14;18.20;99.90
24800;DHT22;12897;50.812;4.430;2023-05-10T14:30:43;18.30;99.90
24800;DHT22;12897;50.812;4.430;2023-05-10T14:33:11;18.20;99.90
24800;DHT22;12897;50.812;4.430;2023-05-10T14:35:39;18.10;99.90
24800;DHT22;12897;50.812;4.430;2023-05-10T14:38:08;17.90;99.90
24800;DHT22;12897;50.812;4.430;2023-05-10T14:40:37;17.90;99.90
24800;DHT22;12897;50.812;4.430;2023-05-10T14:43:04;18.00;99.90
24800;DHT22;12897;50.812;4.430;2023-05-10T14:45:33;18.00;99.90
24800;DHT22;12897;50.812;4.430;2023-05-10T14:48:00;18.10;99.90
24800;DHT22;12897;50.812;4.430;2023-05-10T14:50:30;18.10;99.90
24800;DHT22;12897;50.812;4.430;2023-05-10T14:52:58;17.90;99.90
24800;DHT22;12897;50.812;4.430;2023-05-10T14:55:26;17.90;99.90
24800;DHT22;12897;50.812;4.430;2023-05-10T14:57:53;17.50;99.90
24800;DHT22;12897;50.812;4.430;2023-05-10T15:00:21;17.40;99.90
24800;DHT22;12897;50.812;4.430;2023-05-10T15:02:49;17.20;99.90
24800;DHT22;12897;50.812;4.430;2023-05-10T15:05:16;17.10;99.90
24800;DHT22;12897;50.812;4.430;2023-05-10T15:07:44;17.20;99.90
24800;DHT22;12897;50.812;4.430;2023-05-10T15:10:11;17.20;99.90
24800;DHT22;12897;50.812;4.430;2023-05-10T15:12:41;17.00;99.90
24800;DHT22;12897;50.812;4.430;2023-05-10T15:15:09;17.20;99.90
24800;DHT22;12897;50.812;4.430;2023-05-10T15:17:36;17.10;99.90
24800;DHT22;12897;50.812;4.430;2023-05-10T15:20:04;17.10;99.90
24800;DHT22;12897;50.812;4.430;2023-05-10T15:22:32;17.10;99.90
24800;DHT22;12897;50.812;4.430;2023-05-10T15:25:00;16.90;99.90
24800;DHT22;12897;50.812;4.430;2023-05-10T15:27:28;16.50;99.90
24800;DHT22;12897;50.812;4.430;2023-05-10T15:29:57;16.50;99.90
24800;DHT22;12897;50.812;4.430;2023-05-10T15:32:25;16.40;99.90
24800;DHT22;12897;50.812;4.430;2023-05-10T15:34:53;16.30;99.90
24800;DHT22;12897;50.812;4.430;2023-05-10T15:37:20;16.20;99.90
24800;DHT22;12897;50.812;4.430;2023-05-10T15:39:49;16.10;99.90
24800;DHT22;12897;50.812;4.430;2023-05-10T15:42:17;16.20;99.90
24800;DHT22;12897;50.812;4.430;2023-05-10T15:44:45;16.20;99.90
24800;DHT22;12897;50.812;4.430;2023-05-10T15:47:14;16.30;99.90
24800;DHT22;12897;50.812;4.430;2023-05-10T15:49:41;16.50;99.90
24800;DHT22;12897;50.812;4.430;2023-05-10T15:52:11;16.70;99.90
24800;DHT22;12897;50.812;4.430;2023-05-10T15:54:39;16.80;99.90
24800;DHT22;12897;50.812;4.430;2023-05-10T15:57:07;16.70;99.90
24800;DHT22;12897;50.812;4.430;2023-05-10T15:59:35;16.80;99.90
24800;DHT22;12897;50.812;4.430;2023-05-10T16:02:03;16.80;99.90
24800;DHT22;12897;50.812;4.430;2023-05-10T16:04:31;17.00;99.90
24800;DHT22;12897;50.812;4.430;2023-05-10T16:06:58;17.30;99.90